sensor_id;sensor_type;location;lat;lon;timestamp;pressure;altitude;pressure_sealevel;temperature;humidity
40982;BME280;26708;50.304;19.028;2023-09-30T00:00:15;98632.81;;;18.41;53.99
40982;BME280;26708;50.304;19.028;2023-09-30T00:02:20;98642.69;;;18.35;53.91
40982;BME280;26708;50.304;19.028;2023-09-30T00:04:25;98644.69;;;18.28;54.11
40982;BME280;26708;50.304;19.028;2023-09-30T00:06:32;98609.31;;;18.02;54.23
40982;BME280;26708;50.304;19.028;2023-09-30T00:08:36;98643.44;;;18.12;54.43
40982;BME280;26708;50.304;19.028;2023-09-30T00:10:42;98609.63;;;17.93;54.80
40982;BME280;26708;50.304;19.028;2023-09-30T00:12:48;98639.25;;;18.05;54.79
40982;BME280;26708;50.304;19.028;2023-09-30T00:14:50;98641.09;;;18.03;54.91
40982;BME280;26708;50.304;19.028;2023-09-30T00:16:55;98643.78;;;18.02;54.94
40982;BME280;26708;50.304;19.028;2023-09-30T00:19:01;98555.13;;;17.57;55.21
40982;BME280;26708;50.304;19.028;2023-09-30T00:21:05;98555.31;;;17.51;55.20
40982;BME280;26708;50.304;19.028;2023-09-30T00:23:13;98547.53;;;17.45;55.38
40982;BME280;26708;50.304;19.028;2023-09-30T00:25:18;98644.03;;;17.94;55.23
40982;BME280;26708;50.304;19.028;2023-09-30T00:27:24;98637.03;;;17.92;55.45
40982;BME280;26708;50.304;19.028;2023-09-30T00:29:26;98637.97;;;17.89;55.35
40982;BME280;26708;50.304;19.028;2023-09-30T00:31:31;98532.09;;;17.31;55.77
40982;BME280;26708;50.304;19.028;2023-09-30T00:33:37;98631.06;;;17.85;55.61
40982;BME280;26708;50.304;19.028;2023-09-30T00:35:42;98583.13;;;17.65;55.71
40982;BME280;26708;50.304;19.028;2023-09-30T00:37:48;98621.34;;;17.84;55.85
40982;BME280;26708;50.304;19.028;2023-09-30T00:39:55;98626.72;;;17.83;55.88
40982;BME280;26708;50.304;19.028;2023-09-30T00:41:57;98638.25;;;17.80;55.91
40982;BME280;26708;50.304;19.028;2023-09-30T00:44:04;98622.38;;;17.80;56.00
40982;BME280;26708;50.304;19.028;2023-09-30T00:46:20;98588.56;;;17.61;56.02
40982;BME280;26708;50.304;19.028;2023-09-30T00:48:32;98615.41;;;17.76;56.05
40982;BME280;26708;50.304;19.028;2023-09-30T00:50:36;98611.91;;;17.76;56.20
40982;BME280;26708;50.304;19.028;2023-09-30T00:52:42;98585.94;;;17.59;56.09
40982;BME280;26708;50.304;19.028;2023-09-30T00:54:51;98618.19;;;17.73;56.21
40982;BME280;26708;50.304;19.028;2023-09-30T00:57:00;98614.66;;;17.73;56.43
40982;BME280;26708;50.304;19.028;2023-09-30T00:59:06;98586.97;;;17.54;56.51
40982;BME280;26708;50.304;19.028;2023-09-30T01:01:09;98615.50;;;17.75;56.58
40982;BME280;26708;50.304;19.028;2023-09-30T01:03:15;98617.25;;;17.74;56.67
40982;BME280;26708;50.304;19.028;2023-09-30T01:05:20;98612.91;;;17.72;56.62
40982;BME280;26708;50.304;19.028;2023-09-30T01:07:25;98589.66;;;17.52;56.72
40982;BME280;26708;50.304;19.028;2023-09-30T01:09:30;98485.72;;;16.89;56.70
40982;BME280;26708;50.304;19.028;2023-09-30T01:31:37;98477.13;;;16.81;56.82
40982;BME280;26708;50.304;19.028;2023-09-30T01:33:42;98621.06;;;17.66;56.99
40982;BME280;26708;50.304;19.028;2023-09-30T01:35:46;98620.19;;;17.65;57.03
40982;BME280;26708;50.304;19.028;2023-09-30T01:37:52;98602.84;;;17.54;57.02
40982;BME280;26708;50.304;19.028;2023-09-30T01:39:56;98557.06;;;17.21;57.11
40982;BME280;26708;50.304;19.028;2023-09-30T01:42:01;98624.75;;;17.60;57.22
40982;BME280;26708;50.304;19.028;2023-09-30T01:44:09;98562.34;;;17.21;57.24
40982;BME280;26708;50.304;19.028;2023-09-30T01:46:16;98617.03;;;17.51;57.35
40982;BME280;26708;50.304;19.028;2023-09-30T01:48:20;98625.00;;;17.50;57.48
40982;BME280;26708;50.304;19.028;2023-09-30T01:50:25;98625.09;;;17.48;57.56
40982;BME280;26708;50.304;19.028;2023-09-30T01:52:27;98622.44;;;17.48;57.77
40982;BME280;26708;50.304;19.028;2023-09-30T01:54:32;98596.38;;;17.35;57.67
40982;BME280;26708;50.304;19.028;2023-09-30T01:56:38;98612.63;;;17.52;57.53
40982;BME280;26708;50.304;19.028;2023-09-30T01:58:43;98569.03;;;17.34;57.58
40982;BME280;26708;50.304;19.028;2023-09-30T02:00:47;98602.75;;;17.58;57.36
40982;BME280;26708;50.304;19.028;2023-09-30T02:02:55;98582.00;;;17.43;57.25
40982;BME280;26708;50.304;19.028;2023-09-30T02:05:00;98609.59;;;17.65;57.14
40982;BME280;26708;50.304;19.028;2023-09-30T02:07:05;98608.63;;;17.68;57.30
40982;BME280;26708;50.304;19.028;2023-09-30T02:09:10;98428.19;;;16.67;57.08
40982;BME280;26708;50.304;19.028;2023-09-30T02:11:14;98608.53;;;17.71;56.42
40982;BME280;26708;50.304;19.028;2023-09-30T02:13:19;98583.22;;;17.62;56.66
40982;BME280;26708;50.304;19.028;2023-09-30T02:15:25;98608.50;;;17.72;56.54
40982;BME280;26708;50.304;19.028;2023-09-30T02:17:30;98606.94;;;17.65;56.43
40982;BME280;26708;50.304;19.028;2023-09-30T02:19:37;98580.09;;;17.48;56.69
40982;BME280;26708;50.304;19.028;2023-09-30T02:21:42;98607.75;;;17.67;56.55
40982;BME280;26708;50.304;19.028;2023-09-30T02:23:47;98603.28;;;17.69;56.47
40982;BME280;26708;50.304;19.028;2023-09-30T02:25:56;98595.28;;;17.71;56.42
40982;BME280;26708;50.304;19.028;2023-09-30T02:27:58;98596.94;;;17.75;56.43
40982;BME280;26708;50.304;19.028;2023-09-30T02:30:03;98602.16;;;17.78;56.43
40982;BME280;26708;50.304;19.028;2023-09-30T02:32:09;98598.44;;;17.83;55.57
40982;BME280;26708;50.304;19.028;2023-09-30T02:34:14;98599.16;;;17.88;55.56
40982;BME280;26708;50.304;19.028;2023-09-30T02:36:21;98591.97;;;17.93;55.32
40982;BME280;26708;50.304;19.028;2023-09-30T02:38:26;98602.34;;;17.99;54.14
40982;BME280;26708;50.304;19.028;2023-09-30T02:40:31;98603.09;;;18.03;54.66
40982;BME280;26708;50.304;19.028;2023-09-30T02:42:33;98599.47;;;18.07;54.21
40982;BME280;26708;50.304;19.028;2023-09-30T02:44:37;98596.75;;;18.08;54.47
40982;BME280;26708;50.304;19.028;2023-09-30T02:46:44;98603.69;;;18.12;54.17
40982;BME280;26708;50.304;19.028;2023-09-30T02:48:49;98574.91;;;18.00;55.30
40982;BME280;26708;50.304;19.028;2023-09-30T02:50:54;98605.19;;;18.21;55.70
40982;BME280;26708;50.304;19.028;2023-09-30T02:53:03;98616.69;;;18.20;56.20
40982;BME280;26708;50.304;19.028;2023-09-30T02:55:09;98610.56;;;18.18;55.70
40982;BME280;26708;50.304;19.028;2023-09-30T02:57:14;98607.84;;;18.21;55.05
40982;BME280;26708;50.304;19.028;2023-09-30T02:59:20;98612.16;;;18.23;54.86
40982;BME280;26708;50.304;19.028;2023-09-30T03:01:25;98607.63;;;18.27;54.50
40982;BME280;26708;50.304;19.028;2023-09-30T03:03:27;98481.84;;;17.59;54.35
40982;BME280;26708;50.304;19.028;2023-09-30T03:05:32;98603.09;;;18.30;54.89
40982;BME280;26708;50.304;19.028;2023-09-30T03:07:39;98613.50;;;18.38;55.99
40982;BME280;26708;50.304;19.028;2023-09-30T03:09:46;98456.44;;;17.52;55.81
40982;BME280;26708;50.304;19.028;2023-09-30T03:11:52;98475.47;;;17.64;55.57
40982;BME280;26708;50.304;19.028;2023-09-30T03:13:57;98613.22;;;18.45;55.99
40982;BME280;26708;50.304;19.028;2023-09-30T03:16:02;98597.78;;;18.30;56.79
40982;BME280;26708;50.304;19.028;2023-09-30T03:18:07;98602.81;;;18.39;55.99
40982;BME280;26708;50.304;19.028;2023-09-30T03:20:12;98471.00;;;17.66;56.41
40982;BME280;26708;50.304;19.028;2023-09-30T03:22:20;98594.75;;;18.44;56.01
40982;BME280;26708;50.304;19.028;2023-09-30T03:24:25;98602.53;;;18.48;55.68
40982;BME280;26708;50.304;19.028;2023-09-30T03:26:33;98594.47;;;18.51;55.34
40982;BME280;26708;50.304;19.028;2023-09-30T03:28:42;98593.50;;;18.54;55.12
40982;BME280;26708;50.304;19.028;2023-09-30T03:30:48;98555.59;;;18.24;55.17
40982;BME280;26708;50.304;19.028;2023-09-30T03:32:52;98600.38;;;18.59;55.56
40982;BME280;26708;50.304;19.028;2023-09-30T03:34:57;98601.13;;;18.63;55.58
40982;BME280;26708;50.304;19.028;2023-09-30T03:37:02;98598.44;;;18.64;55.53
40982;BME280;26708;50.304;19.028;2023-09-30T03:39:07;98590.72;;;18.57;55.01
40982;BME280;26708;50.304;19.028;2023-09-30T03:41:15;98597.47;;;18.67;55.80
40982;BME280;26708;50.304;19.028;2023-09-30T03:43:25;98604.44;;;18.69;56.29
40982;BME280;26708;50.304;19.028;2023-09-30T03:45:30;98605.31;;;18.70;55.98
40982;BME280;26708;50.304;19.028;2023-09-30T03:47:35;98613.28;;;18.70;56.64
40982;BME280;26708;50.304;19.028;2023-09-30T03:49:38;98594.91;;;18.64;56.45
40982;BME280;26708;50.304;19.028;2023-09-30T03:51:43;98613.28;;;18.70;56.05
40982;BME280;26708;50.304;19.028;2023-09-30T03:53:47;98607.09;;;18.69;55.39
40982;BME280;26708;50.304;19.028;2023-09-30T03:55:52;98612.34;;;18.71;56.46
40982;BME280;26708;50.304;19.028;2023-09-30T03:57:54;98613.16;;;18.73;56.12
40982;BME280;26708;50.304;19.028;2023-09-30T04:00:02;98607.84;;;18.73;55.89
40982;BME280;26708;50.304;19.028;2023-09-30T04:02:14;98617.53;;;18.74;55.79
40982;BME280;26708;50.304;19.028;2023-09-30T04:04:18;98619.22;;;18.76;55.65
40982;BME280;26708;50.304;19.028;2023-09-30T04:06:23;98617.50;;;18.75;55.28
40982;BME280;26708;50.304;19.028;2023-09-30T04:08:28;98611.28;;;18.76;55.48
40982;BME280;26708;50.304;19.028;2023-09-30T04:10:34;98533.38;;;18.28;54.83
40982;BME280;26708;50.304;19.028;2023-09-30T04:12:38;98610.41;;;18.76;54.88
40982;BME280;26708;50.304;19.028;2023-09-30T04:14:44;98588.84;;;18.60;54.85
40982;BME280;26708;50.304;19.028;2023-09-30T04:16:52;98621.88;;;18.76;54.83
40982;BME280;26708;50.304;19.028;2023-09-30T04:18:57;98618.38;;;18.76;54.92
40982;BME280;26708;50.304;19.028;2023-09-30T04:21:02;98618.41;;;18.74;54.68
40982;BME280;26708;50.304;19.028;2023-09-30T04:23:08;98629.03;;;18.74;54.81
40982;BME280;26708;50.304;19.028;2023-09-30T04:25:14;98615.72;;;18.76;54.87
40982;BME280;26708;50.304;19.028;2023-09-30T04:27:20;98623.69;;;18.76;54.88
40982;BME280;26708;50.304;19.028;2023-09-30T04:29:25;98621.84;;;18.78;55.09
40982;BME280;26708;50.304;19.028;2023-09-30T04:31:30;98620.06;;;18.78;55.18
40982;BME280;26708;50.304;19.028;2023-09-30T04:33:38;98615.59;;;18.79;54.92
40982;BME280;26708;50.304;19.028;2023-09-30T04:35:43;98619.16;;;18.79;54.75
40982;BME280;26708;50.304;19.028;2023-09-30T04:37:45;98624.31;;;18.82;54.96
40982;BME280;26708;50.304;19.028;2023-09-30T04:39:50;98620.75;;;18.83;55.32
40982;BME280;26708;50.304;19.028;2023-09-30T04:41:54;98631.31;;;18.85;55.52
40982;BME280;26708;50.304;19.028;2023-09-30T04:44:02;98626.88;;;18.85;55.36
40982;BME280;26708;50.304;19.028;2023-09-30T04:46:09;98642.75;;;18.87;55.42
40982;BME280;26708;50.304;19.028;2023-09-30T04:48:13;98640.97;;;18.87;56.34
40982;BME280;26708;50.304;19.028;2023-09-30T04:50:20;98648.94;;;18.87;56.02
40982;BME280;26708;50.304;19.028;2023-09-30T04:52:26;98504.84;;;18.10;55.90
40982;BME280;26708;50.304;19.028;2023-09-30T04:54:31;98608.00;;;18.68;55.66
40982;BME280;26708;50.304;19.028;2023-09-30T04:56:36;98641.81;;;18.88;55.68
40982;BME280;26708;50.304;19.028;2023-09-30T04:58:42;98611.44;;;18.72;55.52
40982;BME280;26708;50.304;19.028;2023-09-30T05:00:48;98645.28;;;18.90;55.99
40982;BME280;26708;50.304;19.028;2023-09-30T05:02:52;98647.09;;;18.89;55.45
40982;BME280;26708;50.304;19.028;2023-09-30T05:05:01;98652.38;;;18.89;55.24
40982;BME280;26708;50.304;19.028;2023-09-30T05:07:09;98647.94;;;18.90;55.10
40982;BME280;26708;50.304;19.028;2023-09-30T05:09:14;98652.38;;;18.89;55.01
40982;BME280;26708;50.304;19.028;2023-09-30T05:11:19;98655.88;;;18.90;55.52
40982;BME280;26708;50.304;19.028;2023-09-30T05:13:24;98672.72;;;18.89;57.52
40982;BME280;26708;50.304;19.028;2023-09-30T05:15:28;98673.63;;;18.89;58.00
40982;BME280;26708;50.304;19.028;2023-09-30T05:17:31;98670.16;;;18.87;58.10
40982;BME280;26708;50.304;19.028;2023-09-30T05:19:35;98646.06;;;18.67;58.24
40982;BME280;26708;50.304;19.028;2023-09-30T05:21:40;98675.47;;;18.87;57.05
40982;BME280;26708;50.304;19.028;2023-09-30T05:23:49;98676.31;;;18.88;57.34
40982;BME280;26708;50.304;19.028;2023-09-30T05:25:54;98589.69;;;18.35;57.54
40982;BME280;26708;50.304;19.028;2023-09-30T05:27:58;98684.25;;;18.88;57.31
40982;BME280;26708;50.304;19.028;2023-09-30T05:30:05;98681.56;;;18.89;57.45
40982;BME280;26708;50.304;19.028;2023-09-30T05:32:12;98685.94;;;18.90;57.56
40982;BME280;26708;50.304;19.028;2023-09-30T05:34:15;98645.41;;;18.61;58.01
40982;BME280;26708;50.304;19.028;2023-09-30T05:36:20;98695.59;;;18.93;57.60
40982;BME280;26708;50.304;19.028;2023-09-30T05:38:25;98695.59;;;18.93;58.32
40982;BME280;26708;50.304;19.028;2023-09-30T05:40:34;98696.44;;;18.93;58.41
40982;BME280;26708;50.304;19.028;2023-09-30T05:42:40;98632.31;;;18.56;58.16
40982;BME280;26708;50.304;19.028;2023-09-30T05:44:43;98705.25;;;18.95;57.91
40982;BME280;26708;50.304;19.028;2023-09-30T05:46:49;98710.47;;;18.97;58.12
40982;BME280;26708;50.304;19.028;2023-09-30T05:48:55;98684.56;;;18.79;57.67
40982;BME280;26708;50.304;19.028;2023-09-30T05:50:59;98722.03;;;18.96;57.62
40982;BME280;26708;50.304;19.028;2023-09-30T05:53:04;98727.41;;;18.94;57.68
40982;BME280;26708;50.304;19.028;2023-09-30T05:55:09;98707.44;;;18.83;57.66
40982;BME280;26708;50.304;19.028;2023-09-30T05:57:16;98725.72;;;18.92;57.88
40982;BME280;26708;50.304;19.028;2023-09-30T05:59:21;98701.53;;;18.75;57.84
40982;BME280;26708;50.304;19.028;2023-09-30T06:01:27;98725.72;;;18.92;57.92
40982;BME280;26708;50.304;19.028;2023-09-30T06:03:32;98731.88;;;18.92;57.65
40982;BME280;26708;50.304;19.028;2023-09-30T06:05:41;98705.81;;;18.79;57.75
40982;BME280;26708;50.304;19.028;2023-09-30T06:07:46;98730.91;;;18.95;57.61
40982;BME280;26708;50.304;19.028;2023-09-30T06:09:48;98701.38;;;18.79;57.85
40982;BME280;26708;50.304;19.028;2023-09-30T06:11:53;98702.19;;;18.81;57.76
40982;BME280;26708;50.304;19.028;2023-09-30T06:14:01;98712.69;;;18.84;57.60
40982;BME280;26708;50.304;19.028;2023-09-30T06:16:07;98737.91;;;18.97;57.42
40982;BME280;26708;50.304;19.028;2023-09-30T06:18:12;98712.00;;;18.79;57.49
40982;BME280;26708;50.304;19.028;2023-09-30T06:20:17;98745.75;;;19.00;57.67
40982;BME280;26708;50.304;19.028;2023-09-30T06:22:20;98746.63;;;19.01;57.91
40982;BME280;26708;50.304;19.028;2023-09-30T06:24:26;98750.97;;;19.03;58.20
40982;BME280;26708;50.304;19.028;2023-09-30T06:26:32;98744.75;;;19.04;58.47
40982;BME280;26708;50.304;19.028;2023-09-30T06:28:36;98592.50;;;18.03;58.80
40982;BME280;26708;50.304;19.028;2023-09-30T06:30:44;98748.19;;;19.06;58.98
40982;BME280;26708;50.304;19.028;2023-09-30T06:32:52;98601.66;;;18.20;59.42
40982;BME280;26708;50.304;19.028;2023-09-30T06:34:57;98749.13;;;19.05;59.67
40982;BME280;26708;50.304;19.028;2023-09-30T06:37:01;98685.13;;;18.62;59.88
40982;BME280;26708;50.304;19.028;2023-09-30T06:39:07;98756.28;;;19.03;60.05
40982;BME280;26708;50.304;19.028;2023-09-30T06:41:15;98760.56;;;19.07;60.19
40982;BME280;26708;50.304;19.028;2023-09-30T06:43:20;98705.94;;;18.74;60.35
40982;BME280;26708;50.304;19.028;2023-09-30T06:45:26;98763.13;;;19.10;60.61
40982;BME280;26708;50.304;19.028;2023-09-30T06:47:54;98763.97;;;19.12;60.66
40982;BME280;26708;50.304;19.028;2023-09-30T06:50:00;98585.34;;;18.06;60.86
40982;BME280;26708;50.304;19.028;2023-09-30T06:52:09;98762.09;;;19.16;61.07
40982;BME280;26708;50.304;19.028;2023-09-30T06:54:14;98525.59;;;17.70;61.04
40982;BME280;26708;50.304;19.028;2023-09-30T06:56:19;98742.28;;;18.98;61.26
40982;BME280;26708;50.304;19.028;2023-09-30T06:58:24;98772.69;;;19.16;61.36
40982;BME280;26708;50.304;19.028;2023-09-30T07:00:29;98770.91;;;19.16;61.63
40982;BME280;26708;50.304;19.028;2023-09-30T07:02:33;98775.22;;;19.19;61.74
40982;BME280;26708;50.304;19.028;2023-09-30T07:04:41;98739.66;;;18.97;61.69
40982;BME280;26708;50.304;19.028;2023-09-30T07:06:46;98382.72;;;16.85;62.04
40982;BME280;26708;50.304;19.028;2023-09-30T07:08:51;98662.59;;;18.49;62.41
40982;BME280;26708;50.304;19.028;2023-09-30T07:10:56;98704.25;;;18.72;62.77
40982;BME280;26708;50.304;19.028;2023-09-30T07:13:03;98656.88;;;18.35;62.91
40982;BME280;26708;50.304;19.028;2023-09-30T07:15:07;98689.88;;;18.53;63.31
40982;BME280;26708;50.304;19.028;2023-09-30T07:17:13;98785.22;;;19.11;63.71
40982;BME280;26708;50.304;19.028;2023-09-30T07:19:18;98792.38;;;19.09;64.07
40982;BME280;26708;50.304;19.028;2023-09-30T07:21:23;98734.19;;;18.77;64.34
40982;BME280;26708;50.304;19.028;2023-09-30T07:23:29;98793.31;;;19.06;64.48
40982;BME280;26708;50.304;19.028;2023-09-30T07:25:35;98749.16;;;18.78;64.50
40982;BME280;26708;50.304;19.028;2023-09-30T07:27:39;98737.78;;;18.47;64.68
40982;BME280;26708;50.304;19.028;2023-09-30T07:29:44;98636.69;;;18.02;65.17
40982;BME280;26708;50.304;19.028;2023-09-30T07:31:49;98799.66;;;19.02;65.12
40982;BME280;26708;50.304;19.028;2023-09-30T07:33:54;98806.75;;;19.02;65.22
40982;BME280;26708;50.304;19.028;2023-09-30T07:35:59;98696.34;;;18.15;65.54
40982;BME280;26708;50.304;19.028;2023-09-30T07:38:07;98685.31;;;18.29;65.59
40982;BME280;26708;50.304;19.028;2023-09-30T07:40:12;98678.06;;;18.06;65.92
40982;BME280;26708;50.304;19.028;2023-09-30T07:42:18;98801.75;;;18.93;66.22
40982;BME280;26708;50.304;19.028;2023-09-30T07:44:23;98686.72;;;18.13;66.27
40982;BME280;26708;50.304;19.028;2023-09-30T07:46:28;98801.75;;;18.93;66.40
40982;BME280;26708;50.304;19.028;2023-09-30T07:48:34;98743.84;;;18.52;66.37
40982;BME280;26708;50.304;19.028;2023-09-30T07:50:40;98797.53;;;18.86;66.86
40982;BME280;26708;50.304;19.028;2023-09-30T07:52:44;98765.59;;;18.61;66.89
40982;BME280;26708;50.304;19.028;2023-09-30T07:54:53;98848.59;;;18.94;66.89
40982;BME280;26708;50.304;19.028;2023-09-30T07:56:59;98666.53;;;17.80;67.37
40982;BME280;26708;50.304;19.028;2023-09-30T07:59:09;98818.66;;;18.89;67.48
40982;BME280;26708;50.304;19.028;2023-09-30T08:01:17;98808.19;;;18.84;67.54
40982;BME280;26708;50.304;19.028;2023-09-30T08:03:23;98828.16;;;18.96;67.68
40982;BME280;26708;50.304;19.028;2023-09-30T08:05:27;98737.19;;;18.37;67.95
40982;BME280;26708;50.304;19.028;2023-09-30T08:07:34;98712.09;;;18.20;68.00
40982;BME280;26708;50.304;19.028;2023-09-30T08:09:41;98829.81;;;19.00;68.18
40982;BME280;26708;50.304;19.028;2023-09-30T08:11:49;98698.41;;;18.06;68.16
40982;BME280;26708;50.304;19.028;2023-09-30T08:13:53;98636.41;;;17.84;68.44
40982;BME280;26708;50.304;19.028;2023-09-30T08:16:02;98816.56;;;19.00;68.55
40982;BME280;26708;50.304;19.028;2023-09-30T08:18:09;98640.16;;;17.75;68.57
40982;BME280;26708;50.304;19.028;2023-09-30T08:20:15;98821.50;;;19.10;68.72
40982;BME280;26708;50.304;19.028;2023-09-30T08:22:17;98802.41;;;18.99;68.40
40982;BME280;26708;50.304;19.028;2023-09-30T08:24:22;98789.69;;;18.83;68.43
40982;BME280;26708;50.304;19.028;2023-09-30T08:26:29;98837.75;;;19.29;68.48
40982;BME280;26708;50.304;19.028;2023-09-30T08:28:39;98800.47;;;19.04;68.17
40982;BME280;26708;50.304;19.028;2023-09-30T08:30:43;98798.59;;;19.08;68.54
40982;BME280;26708;50.304;19.028;2023-09-30T08:32:49;98837.44;;;19.38;68.65
40982;BME280;26708;50.304;19.028;2023-09-30T08:34:55;98805.25;;;19.21;68.58
40982;BME280;26708;50.304;19.028;2023-09-30T08:36:57;98649.66;;;18.11;68.39
40982;BME280;26708;50.304;19.028;2023-09-30T08:39:05;98837.13;;;19.47;68.09
40982;BME280;26708;50.304;19.028;2023-09-30T08:41:26;98797.19;;;19.24;68.27
40982;BME280;26708;50.304;19.028;2023-09-30T08:43:40;98798.06;;;19.24;68.00
40982;BME280;26708;50.304;19.028;2023-09-30T08:45:47;98853.03;;;19.48;67.81
40982;BME280;26708;50.304;19.028;2023-09-30T08:47:55;98837.13;;;19.47;67.69
40982;BME280;26708;50.304;19.028;2023-09-30T08:50:08;98816.19;;;19.38;68.00
40982;BME280;26708;50.304;19.028;2023-09-30T08:52:16;98834.50;;;19.45;68.21
40982;BME280;26708;50.304;19.028;2023-09-30T08:54:18;98836.25;;;19.46;68.15
40982;BME280;26708;50.304;19.028;2023-09-30T08:56:28;98579.56;;;17.94;68.04
40982;BME280;26708;50.304;19.028;2023-09-30T08:58:36;98720.13;;;18.73;68.51
40982;BME280;26708;50.304;19.028;2023-09-30T09:00:44;98607.13;;;18.16;68.41
40982;BME280;26708;50.304;19.028;2023-09-30T09:02:49;98839.75;;;19.48;68.22
40982;BME280;26708;50.304;19.028;2023-09-30T09:04:55;98647.53;;;18.22;67.89
40982;BME280;26708;50.304;19.028;2023-09-30T09:07:01;98839.78;;;19.47;68.18
40982;BME280;26708;50.304;19.028;2023-09-30T09:09:13;98668.59;;;18.27;67.97
40982;BME280;26708;50.304;19.028;2023-09-30T09:11:20;98850.44;;;19.45;68.35
40982;BME280;26708;50.304;19.028;2023-09-30T09:13:27;98637.38;;;18.09;68.19
40982;BME280;26708;50.304;19.028;2023-09-30T09:15:37;98570.47;;;17.75;68.17
40982;BME280;26708;50.304;19.028;2023-09-30T09:17:44;98770.66;;;18.96;68.34
40982;BME280;26708;50.304;19.028;2023-09-30T09:19:59;98851.41;;;19.43;68.37
40982;BME280;26708;50.304;19.028;2023-09-30T09:22:06;98705.50;;;18.62;68.50
40982;BME280;26708;50.304;19.028;2023-09-30T09:24:26;98653.59;;;18.26;68.67
40982;BME280;26708;50.304;19.028;2023-09-30T09:26:30;98805.41;;;19.16;68.81
40982;BME280;26708;50.304;19.028;2023-09-30T09:28:36;98849.69;;;19.42;68.91
40982;BME280;26708;50.304;19.028;2023-09-30T09:30:45;98852.34;;;19.42;68.93
40982;BME280;26708;50.304;19.028;2023-09-30T09:32:53;98849.69;;;19.42;68.70
40982;BME280;26708;50.304;19.028;2023-09-30T09:35:08;98710.97;;;18.56;68.96
40982;BME280;26708;50.304;19.028;2023-09-30T09:37:15;98860.31;;;19.42;68.87
40982;BME280;26708;50.304;19.028;2023-09-30T09:39:29;98666.28;;;18.16;68.87
40982;BME280;26708;50.304;19.028;2023-09-30T09:41:49;98857.66;;;19.42;69.04
40982;BME280;26708;50.304;19.028;2023-09-30T09:43:59;98851.84;;;19.31;69.07
40982;BME280;26708;50.304;19.028;2023-09-30T09:46:08;98642.78;;;18.06;69.08
40982;BME280;26708;50.304;19.028;2023-09-30T09:48:13;98603.19;;;17.72;69.02
40982;BME280;26708;50.304;19.028;2023-09-30T09:50:19;98821.38;;;18.87;69.07
40982;BME280;26708;50.304;19.028;2023-09-30T09:52:25;98826.34;;;18.98;69.48
40982;BME280;26708;50.304;19.028;2023-09-30T09:54:33;98874.91;;;19.29;69.44
40982;BME280;26708;50.304;19.028;2023-09-30T09:56:39;98873.16;;;19.28;69.83
40982;BME280;26708;50.304;19.028;2023-09-30T09:58:47;98877.69;;;19.24;69.81
40982;BME280;26708;50.304;19.028;2023-09-30T10:00:56;98825.44;;;18.99;70.04
40982;BME280;26708;50.304;19.028;2023-09-30T10:03:05;98615.63;;;17.70;70.26
40982;BME280;26708;50.304;19.028;2023-09-30T10:05:10;98875.88;;;19.26;70.23
40982;BME280;26708;50.304;19.028;2023-09-30T10:07:21;98791.44;;;18.84;70.26
40982;BME280;26708;50.304;19.028;2023-09-30T10:09:31;98729.88;;;18.45;70.26
40982;BME280;26708;50.304;19.028;2023-09-30T10:11:39;98674.31;;;18.13;70.19
40982;BME280;26708;50.304;19.028;2023-09-30T10:13:54;98880.16;;;19.30;70.54
40982;BME280;26708;50.304;19.028;2023-09-30T10:16:03;98833.94;;;19.08;70.44
40982;BME280;26708;50.304;19.028;2023-09-30T10:18:09;98818.78;;;18.86;69.73
40982;BME280;26708;50.304;19.028;2023-09-30T10:20:14;98586.75;;;17.61;70.19
40982;BME280;26708;50.304;19.028;2023-09-30T10:22:22;98880.97;;;19.32;70.36
40982;BME280;26708;50.304;19.028;2023-09-30T10:24:30;98605.19;;;17.66;70.27
40982;BME280;26708;50.304;19.028;2023-09-30T10:26:35;98863.56;;;19.24;70.34
40982;BME280;26708;50.304;19.028;2023-09-30T10:28:42;98890.69;;;19.33;70.41
40982;BME280;26708;50.304;19.028;2023-09-30T10:31:09;98886.28;;;19.32;70.55
40982;BME280;26708;50.304;19.028;2023-09-30T10:33:17;98874.16;;;19.25;70.46
40982;BME280;26708;50.304;19.028;2023-09-30T10:35:45;98888.13;;;19.30;70.70
40982;BME280;26708;50.304;19.028;2023-09-30T10:37:50;98885.38;;;19.33;70.51
40982;BME280;26708;50.304;19.028;2023-09-30T10:39:53;98748.38;;;18.48;70.56
40982;BME280;26708;50.304;19.028;2023-09-30T10:42:00;98837.00;;;18.96;70.48
40982;BME280;26708;50.304;19.028;2023-09-30T10:44:32;98889.81;;;19.33;70.55
40982;BME280;26708;50.304;19.028;2023-09-30T10:46:37;98896.06;;;19.32;70.43
40982;BME280;26708;50.304;19.028;2023-09-30T10:48:45;98813.41;;;18.87;70.63
40982;BME280;26708;50.304;19.028;2023-09-30T10:50:50;98751.78;;;18.52;70.54
40982;BME280;26708;50.304;19.028;2023-09-30T10:53:03;98723.72;;;18.16;70.86
40982;BME280;26708;50.304;19.028;2023-09-30T10:55:19;98722.28;;;18.33;70.51
40982;BME280;26708;50.304;19.028;2023-09-30T10:57:28;98672.44;;;17.88;70.36
40982;BME280;26708;50.304;19.028;2023-09-30T10:59:33;98885.44;;;19.32;70.42
40982;BME280;26708;50.304;19.028;2023-09-30T11:01:38;98739.72;;;18.42;70.36
40982;BME280;26708;50.304;19.028;2023-09-30T11:03:47;98872.16;;;19.32;70.31
40982;BME280;26708;50.304;19.028;2023-09-30T11:05:53;98892.31;;;19.37;70.28
40982;BME280;26708;50.304;19.028;2023-09-30T11:07:57;98916.22;;;19.37;70.25
40982;BME280;26708;50.304;19.028;2023-09-30T11:10:07;98879.50;;;19.24;69.77
40982;BME280;26708;50.304;19.028;2023-09-30T11:12:13;98821.41;;;18.86;69.88
40982;BME280;26708;50.304;19.028;2023-09-30T11:14:21;98818.94;;;18.80;69.77
40982;BME280;26708;50.304;19.028;2023-09-30T11:16:29;98873.53;;;18.88;69.68
40982;BME280;26708;50.304;19.028;2023-09-30T11:18:32;98730.38;;;18.00;69.50
40982;BME280;26708;50.304;19.028;2023-09-30T11:20:43;98892.78;;;18.95;69.89